createdAt,value
2022-08-16T00:03:56.591Z,71.3
2022-08-16T00:09:36.044Z,71.5
2022-08-16T00:15:17.379Z,71.9
2022-08-16T00:20:53.432Z,72.1
2022-08-16T00:26:45.225Z,72.3
2022-08-16T00:32:33.083Z,72.6
2022-08-16T00:38:43.731Z,72.9
2022-08-16T00:44:41.124Z,72.8
2022-08-16T00:50:17.510Z,72.9
2022-08-16T00:55:54.481Z,73
2022-08-16T01:01:30.928Z,73.1
2022-08-16T01:07:17.924Z,73.1
2022-08-16T01:12:54.885Z,73.1
2022-08-16T01:18:41.648Z,73.1
2022-08-16T01:24:55.565Z,73.1
2022-08-16T01:30:34.600Z,73
2022-08-16T01:36:26.955Z,73.1
2022-08-16T01:42:25.769Z,73.1
2022-08-16T01:48:01.554Z,73.2
2022-08-16T01:53:56.279Z,73.4
2022-08-16T01:59:34.603Z,73.5
2022-08-16T02:05:11.002Z,73.6
2022-08-16T02:10:46.350Z,73.7
2022-08-16T02:16:22.239Z,73.8
2022-08-16T02:22:36.746Z,73.8
2022-08-16T02:28:19.224Z,73.9
2022-08-16T02:34:06.704Z,74.1
2022-08-16T02:39:54.515Z,74.1
2022-08-16T02:45:29.987Z,74.3
2022-08-16T02:51:11.833Z,74.3
2022-08-16T02:56:48.236Z,74.5
2022-08-16T03:02:41.889Z,74.7
2022-08-16T03:08:53.355Z,74.8
2022-08-16T03:14:28.622Z,74.8
2022-08-16T03:20:05.100Z,74.9
2022-08-16T03:25:44.954Z,75
2022-08-16T03:31:23.448Z,75
2022-08-16T03:36:58.162Z,75.1
2022-08-16T03:43:21.553Z,75.1
2022-08-16T03:48:54.861Z,75.2
2022-08-16T03:54:30.578Z,75.3
2022-08-16T04:00:06.112Z,75.4
2022-08-16T04:05:44.648Z,75.4
2022-08-16T04:11:25.034Z,75.6
2022-08-16T04:17:02.054Z,75.7
2022-08-16T04:22:40.293Z,75.7
2022-08-16T04:28:56.883Z,75.7
2022-08-16T04:35:10.311Z,75.8
2022-08-16T04:40:51.810Z,75.8
2022-08-16T04:47:21.318Z,75.9
2022-08-16T04:53:12.445Z,76
2022-08-16T04:58:58.071Z,76
2022-08-16T05:04:32.779Z,76
2022-08-16T05:10:22.854Z,76
2022-08-16T05:15:58.480Z,76.1
2022-08-16T05:21:38.798Z,76.2
2022-08-16T05:27:14.457Z,76.3
2022-08-16T05:32:50.022Z,76.3
2022-08-16T05:38:39.557Z,76.3
2022-08-16T05:44:36.957Z,76.1
2022-08-16T05:50:19.719Z,76.1
2022-08-16T05:56:09.937Z,76.2
2022-08-16T06:01:55.376Z,76.3
2022-08-16T06:07:33.677Z,76.2
2022-08-16T06:13:08.433Z,76.2
2022-08-16T06:18:45.637Z,76.5
2022-08-16T06:24:56.001Z,76.9
2022-08-16T06:30:31.595Z,76
2022-08-16T06:36:08.589Z,76
2022-08-16T06:42:07.406Z,75.5
2022-08-16T06:47:56.476Z,75.4
2022-08-16T06:53:32.777Z,75.7
2022-08-16T06:59:10.704Z,72.9
2022-08-16T07:04:45.683Z,71.4
2022-08-16T07:10:26.998Z,72.4
2022-08-16T07:16:05.107Z,72.1
2022-08-16T07:22:00.175Z,70.6
2022-08-16T07:27:37.848Z,70.6
2022-08-16T07:33:18.431Z,70.8
2022-08-16T07:39:34.377Z,70.6
2022-08-16T07:45:33.988Z,71.2
2022-08-16T07:51:10.068Z,70.3
2022-08-16T07:56:45.730Z,70
2022-08-16T08:02:28.030Z,70.5
2022-08-16T08:08:52.468Z,70.8
2022-08-16T08:14:34.134Z,70.7
2022-08-16T08:20:09.466Z,71.6
2022-08-16T08:25:55.919Z,69.9
2022-08-16T08:31:34.529Z,64.7
2022-08-16T08:37:17.987Z,67.1
2022-08-16T08:43:18.803Z,69.1
2022-08-16T08:49:02.818Z,67.5
2022-08-16T08:54:43.097Z,67.7
2022-08-16T09:00:30.408Z,66.4
2022-08-16T09:06:07.346Z,66.7
2022-08-16T09:11:52.902Z,65.5
2022-08-16T09:18:35.221Z,64.1
2022-08-16T09:24:46.423Z,61.1
2022-08-16T09:30:51.445Z,62.8
2022-08-16T09:36:33.192Z,61.9
2022-08-16T09:42:58.916Z,60.1
2022-08-16T09:48:44.592Z,60.9
2022-08-16T09:54:32.938Z,58.4
2022-08-16T10:00:45.633Z,59.1
2022-08-16T10:06:22.740Z,58
2022-08-16T10:12:19.989Z,58.9
2022-08-16T10:18:02.583Z,60.6
2022-08-16T10:25:00.434Z,59.7
2022-08-16T10:30:40.131Z,61
2022-08-16T10:36:39.933Z,61.3
2022-08-16T10:42:36.866Z,60.2
2022-08-16T10:48:29.137Z,59.9
2022-08-16T10:54:30.367Z,60.2
2022-08-16T11:00:23.110Z,61.2
2022-08-16T11:06:28.111Z,58.3
2022-08-16T11:12:15.004Z,56.3
2022-08-16T11:19:03.359Z,58.1
2022-08-16T11:25:15.307Z,58.1
2022-08-16T11:32:00.142Z,54.6
2022-08-16T11:38:47.694Z,54.3
2022-08-16T11:44:57.801Z,52.3
2022-08-16T11:50:30.465Z,55.1
2022-08-16T11:56:06.443Z,53.9
2022-08-16T12:02:04.200Z,53.5
2022-08-16T12:08:08.919Z,51
2022-08-16T12:13:45.993Z,49.5
2022-08-16T12:19:35.360Z,45.8
2022-08-16T12:25:15.367Z,53
2022-08-16T12:30:51.634Z,56.3
2022-08-16T12:36:30.362Z,57.3
2022-08-16T12:42:35.971Z,57.6
2022-08-16T12:48:35.258Z,57.9
2022-08-16T12:54:11.995Z,58.2
2022-08-16T12:59:47.261Z,58.5
2022-08-16T13:05:22.449Z,59
2022-08-16T13:10:58.575Z,59.9
2022-08-16T13:16:34.596Z,60
2022-08-16T13:22:20.201Z,60.2
2022-08-16T13:28:04.682Z,61.3
2022-08-16T13:33:40.963Z,61.8
2022-08-16T13:39:15.845Z,62.8
2022-08-16T13:45:16.066Z,63.2
2022-08-16T13:50:52.914Z,63.5
2022-08-16T13:56:40.466Z,63.7
2022-08-16T14:02:18.170Z,64.1
2022-08-16T14:07:58.119Z,64.5
2022-08-16T14:13:34.594Z,64.6
2022-08-16T14:19:22.756Z,65
2022-08-16T14:25:10.170Z,65.3
2022-08-16T14:30:53.563Z,65.6
2022-08-16T14:36:30.262Z,65.5
2022-08-16T14:42:27.221Z,65.5
2022-08-16T14:47:59.833Z,66
2022-08-16T14:53:36.221Z,66
2022-08-16T14:59:27.191Z,66
2022-08-16T15:05:23.155Z,65.7
2022-08-16T15:10:58.581Z,65.9
2022-08-16T15:16:34.342Z,66
2022-08-16T15:22:22.713Z,66.1
2022-08-16T15:28:05.966Z,66.3
2022-08-16T15:34:13.279Z,66.7
2022-08-16T15:40:04.561Z,66.9
2022-08-16T15:46:09.070Z,67.1
2022-08-16T15:51:45.756Z,67.1
2022-08-16T15:57:23.070Z,67.3
2022-08-16T16:02:59.160Z,67.4
2022-08-16T16:08:41.818Z,67.8
2022-08-16T16:14:18.695Z,68.1
2022-08-16T16:19:55.382Z,67.9
2022-08-16T16:25:32.389Z,67
2022-08-16T16:31:08.476Z,65.9
2022-08-16T16:36:48.763Z,64.7
2022-08-16T16:42:51.471Z,64.2
2022-08-16T16:48:35.397Z,64.5
2022-08-16T16:54:13.363Z,64.2
2022-08-16T17:00:30.407Z,63.7
2022-08-16T17:06:34.842Z,64.4
2022-08-16T17:12:47.680Z,65.2
2022-08-16T17:19:21.802Z,65.7
2022-08-16T17:25:08.403Z,66.2
2022-08-16T17:30:45.813Z,66.5
2022-08-16T17:36:37.210Z,66.9
2022-08-16T17:42:51.183Z,67.2
2022-08-16T17:48:24.771Z,67.3
2022-08-16T17:53:59.543Z,67.5
2022-08-16T17:59:41.496Z,67.8
2022-08-16T18:05:17.707Z,68
2022-08-16T18:10:53.476Z,68.4
2022-08-16T18:16:31.271Z,68.7
2022-08-16T18:22:06.474Z,69
2022-08-16T18:27:41.401Z,69.2
2022-08-16T18:33:16.161Z,69.3
2022-08-16T18:38:51.741Z,69.6
2022-08-16T18:44:48.328Z,70.1
2022-08-16T18:50:21.642Z,70.9
2022-08-16T18:56:58.594Z,72.3
2022-08-16T19:02:59.427Z,72.9
2022-08-16T19:08:34.564Z,73.8
2022-08-16T19:14:09.451Z,74.3
2022-08-16T19:19:44.349Z,74.7
2022-08-16T19:25:19.402Z,75
2022-08-16T19:30:54.105Z,75.3
2022-08-16T19:36:33.878Z,75.6
2022-08-16T19:42:34.315Z,75.7
2022-08-16T19:48:07.897Z,76.1
2022-08-16T19:54:03.491Z,76.2
2022-08-16T19:59:41.037Z,76.4
2022-08-16T20:05:17.027Z,76.5
2022-08-16T20:10:52.442Z,76.5
2022-08-16T20:16:27.316Z,76.3
2022-08-16T20:22:02.610Z,76
2022-08-16T20:27:39.283Z,75.6
2022-08-16T20:33:15.050Z,75.7
2022-08-16T20:38:49.875Z,76.5
2022-08-16T20:44:46.580Z,76.7
2022-08-16T20:50:20.131Z,76.9
2022-08-16T20:55:55.762Z,77
2022-08-16T21:01:50.009Z,77.1
2022-08-16T21:07:26.327Z,76.9
2022-08-16T21:13:02.522Z,77
2022-08-16T21:18:37.371Z,77.1
2022-08-16T21:24:13.099Z,77.1
2022-08-16T21:29:49.283Z,77.1
2022-08-16T21:35:26.897Z,77.1
2022-08-16T21:41:03.451Z,77.3
2022-08-16T21:46:38.268Z,77.3
2022-08-16T21:52:27.029Z,77.2
2022-08-16T21:58:02.150Z,77.2
2022-08-16T22:03:37.046Z,77.2
2022-08-16T22:09:11.941Z,77.4
2022-08-16T22:14:48.224Z,77.3
2022-08-16T22:20:23.138Z,77.2
2022-08-16T22:25:58.132Z,77.2
2022-08-16T22:31:33.081Z,77.2
2022-08-16T22:37:08.289Z,77.3
2022-08-16T22:43:04.776Z,77.3
2022-08-16T22:48:42.899Z,77.5
2022-08-16T22:54:49.216Z,77.6
2022-08-16T23:00:24.667Z,77.7
2022-08-16T23:05:59.544Z,77.7
2022-08-16T23:11:34.977Z,77.8
2022-08-16T23:17:09.918Z,77.8
2022-08-16T23:23:21.917Z,77.7
2022-08-16T23:29:00.795Z,77.6
2022-08-16T23:34:35.700Z,77.6
2022-08-16T23:40:10.850Z,77.6
2022-08-16T23:45:46.529Z,77.6
2022-08-16T23:51:21.286Z,77.6
2022-08-16T23:56:56.305Z,77.8
